createdAt,value
2023-03-27T00:00:13.169Z,10.40
2023-03-27T00:02:41.986Z,10.40
2023-03-27T00:05:11.248Z,10.40
2023-03-27T00:07:41.554Z,10.20
2023-03-27T00:10:10.851Z,10.30
2023-03-27T00:12:39.217Z,10.20
2023-03-27T00:15:10.111Z,10.10
2023-03-27T00:17:38.949Z,10.20
2023-03-27T00:20:07.878Z,10.10
2023-03-27T00:22:36.978Z,10.00
2023-03-27T00:25:06.254Z,9.80
2023-03-27T00:27:36.105Z,9.80
2023-03-27T00:30:06.702Z,9.70
2023-03-27T00:32:36.370Z,9.60
2023-03-27T00:35:05.982Z,9.50
2023-03-27T00:37:34.311Z,9.40
2023-03-27T00:40:08.013Z,9.40
2023-03-27T00:42:36.675Z,9.50
2023-03-27T00:45:06.229Z,9.30
2023-03-27T00:47:38.668Z,9.30
2023-03-27T00:50:11.618Z,9.30
2023-03-27T00:52:41.754Z,9.20
2023-03-27T00:55:15.337Z,9.10
2023-03-27T00:57:45.407Z,9.10
2023-03-27T01:00:17.021Z,9.10
2023-03-27T01:02:51.360Z,9.10
2023-03-27T01:05:21.459Z,9.10
2023-03-27T01:08:00.588Z,9.20
2023-03-27T01:10:36.945Z,9.10
2023-03-27T01:13:18.854Z,9.10
2023-03-27T01:15:53.950Z,9.10
2023-03-27T01:18:35.467Z,9.00
2023-03-27T01:21:36.305Z,9.00
2023-03-27T01:24:25.216Z,9.00
2023-03-27T01:27:02.192Z,9.00
2023-03-27T01:29:56.730Z,8.90
2023-03-27T01:33:02.127Z,8.90
2023-03-27T01:35:57.590Z,8.90
2023-03-27T01:38:59.185Z,8.70
2023-03-27T01:41:33.434Z,8.70
2023-03-27T01:44:05.557Z,8.60
2023-03-27T01:46:41.882Z,8.60
2023-03-27T01:49:14.133Z,8.70
2023-03-27T01:51:48.277Z,8.60
2023-03-27T01:54:21.734Z,8.70
2023-03-27T01:56:56.413Z,8.70
2023-03-27T01:59:28.706Z,8.60
2023-03-27T02:02:02.238Z,8.60
2023-03-27T02:04:38.393Z,8.60
2023-03-27T02:07:12.207Z,8.40
2023-03-27T02:09:45.158Z,8.40
2023-03-27T02:12:19.728Z,8.40
2023-03-27T02:14:53.744Z,8.30
2023-03-27T02:17:26.193Z,8.30
2023-03-27T02:19:59.572Z,8.40
2023-03-27T02:22:37.559Z,8.10
2023-03-27T02:25:23.023Z,8.30
2023-03-27T02:27:59.986Z,8.10
2023-03-27T02:30:33.511Z,8.20
2023-03-27T02:33:09.136Z,8.20
2023-03-27T02:35:47.137Z,8.30
2023-03-27T02:38:23.628Z,8.40
2023-03-27T02:41:01.031Z,8.20
2023-03-27T02:43:33.730Z,8.40
2023-03-27T02:46:06.543Z,8.30
2023-03-27T02:48:36.371Z,8.40
2023-03-27T02:51:08.541Z,8.40
2023-03-27T02:53:42.684Z,8.30
2023-03-27T02:56:13.008Z,8.40
2023-03-27T02:58:50.039Z,8.40
2023-03-27T03:01:22.182Z,8.40
2023-03-27T03:03:58.401Z,8.30
2023-03-27T03:06:30.154Z,8.40
2023-03-27T03:09:03.402Z,8.40
2023-03-27T03:11:32.201Z,8.20
2023-03-27T03:14:01.785Z,8.40
2023-03-27T03:16:30.727Z,8.40
2023-03-27T03:18:59.272Z,8.30
2023-03-27T03:21:27.437Z,8.20
2023-03-27T03:23:58.527Z,8.20
2023-03-27T03:26:27.665Z,8.30
2023-03-27T03:29:00.824Z,8.40
2023-03-27T03:31:43.090Z,8.30
2023-03-27T03:34:13.017Z,8.40
2023-03-27T03:36:42.971Z,8.40
2023-03-27T03:39:12.775Z,8.30
2023-03-27T03:41:41.531Z,8.20
2023-03-27T03:44:11.008Z,8.50
2023-03-27T03:46:41.579Z,8.40
2023-03-27T03:49:10.158Z,8.50
2023-03-27T03:51:38.637Z,8.50
2023-03-27T03:54:09.329Z,8.60
2023-03-27T03:56:41.599Z,8.40
2023-03-27T03:59:11.768Z,8.40
2023-03-27T04:01:41.377Z,8.50
2023-03-27T04:04:09.728Z,8.50
2023-03-27T04:06:38.958Z,8.50
2023-03-27T04:09:07.518Z,8.50
2023-03-27T04:11:36.334Z,8.50
2023-03-27T04:14:04.543Z,8.50
2023-03-27T04:16:34.060Z,8.40
2023-03-27T04:19:03.757Z,8.50
2023-03-27T04:21:31.998Z,8.50
2023-03-27T04:24:02.550Z,8.50
2023-03-27T04:26:31.208Z,8.50
2023-03-27T04:28:59.513Z,8.50
2023-03-27T04:31:28.542Z,8.50
2023-03-27T04:33:56.807Z,8.40
2023-03-27T04:36:26.518Z,8.50
2023-03-27T04:38:55.497Z,8.40
2023-03-27T04:41:23.809Z,8.40
2023-03-27T04:43:52.162Z,8.40
2023-03-27T04:46:20.367Z,8.20
2023-03-27T04:48:49.203Z,8.10
2023-03-27T04:51:17.963Z,7.90
2023-03-27T04:53:47.564Z,7.80
2023-03-27T04:56:16.205Z,7.80
2023-03-27T04:58:45.764Z,7.90
2023-03-27T05:01:14.509Z,7.70
2023-03-27T05:03:42.982Z,7.60
2023-03-27T05:06:12.182Z,7.60
2023-03-27T05:08:40.664Z,7.50
2023-03-27T05:11:10.826Z,7.60
2023-03-27T05:13:39.273Z,7.40
2023-03-27T05:16:09.968Z,7.60
2023-03-27T05:18:41.744Z,7.70
2023-03-27T05:21:10.765Z,7.60
2023-03-27T05:23:39.584Z,7.60
2023-03-27T05:26:08.441Z,7.60
2023-03-27T05:28:39.816Z,7.70
2023-03-27T05:31:10.677Z,7.50
2023-03-27T05:33:39.987Z,7.60
2023-03-27T05:36:09.929Z,7.60
2023-03-27T05:38:39.481Z,7.70
2023-03-27T05:41:08.658Z,7.60
2023-03-27T05:43:38.301Z,7.60
2023-03-27T05:46:06.920Z,7.60
2023-03-27T05:48:35.855Z,7.80
2023-03-27T05:51:04.568Z,7.60
2023-03-27T05:53:33.011Z,7.50
2023-03-27T05:56:02.894Z,7.70
2023-03-27T05:58:31.638Z,7.70
2023-03-27T06:01:02.581Z,7.70
2023-03-27T06:03:31.232Z,7.70
2023-03-27T06:06:01.047Z,7.60
2023-03-27T06:08:30.069Z,7.60
2023-03-27T06:10:58.652Z,7.50
2023-03-27T06:13:27.381Z,7.30
2023-03-27T06:15:56.530Z,7.30
2023-03-27T06:18:26.421Z,7.30
2023-03-27T06:20:55.684Z,7.10
2023-03-27T06:23:24.225Z,7.10
2023-03-27T06:25:53.277Z,7.10
2023-03-27T06:28:21.737Z,7.00
2023-03-27T06:30:51.138Z,7.10
2023-03-27T06:33:19.554Z,7.10
2023-03-27T06:35:53.952Z,7.30
2023-03-27T06:38:22.943Z,7.40
2023-03-27T06:40:52.004Z,7.50
2023-03-27T06:43:22.513Z,7.50
2023-03-27T06:45:51.862Z,7.50
2023-03-27T06:48:22.353Z,7.60
2023-03-27T06:50:54.033Z,7.70
2023-03-27T06:53:28.015Z,7.80
2023-03-27T06:55:57.932Z,7.70
2023-03-27T06:58:27.589Z,7.90
2023-03-27T07:00:56.009Z,7.90
2023-03-27T07:03:25.909Z,8.10
2023-03-27T07:05:55.815Z,8.20
2023-03-27T07:08:25.580Z,8.30
2023-03-27T07:11:07.882Z,8.30
2023-03-27T07:13:41.203Z,8.40
2023-03-27T07:16:12.187Z,8.30
2023-03-27T07:18:42.126Z,8.40
2023-03-27T07:21:15.204Z,8.40
2023-03-27T07:23:43.729Z,8.40
2023-03-27T07:26:12.023Z,8.50
2023-03-27T07:28:40.421Z,8.30
2023-03-27T07:31:25.974Z,8.30
2023-03-27T07:33:59.283Z,8.30
2023-03-27T07:36:29.183Z,8.40
2023-03-27T07:38:57.863Z,8.40
2023-03-27T07:41:26.120Z,8.60
2023-03-27T07:43:54.463Z,8.80
2023-03-27T07:46:24.407Z,8.90
2023-03-27T07:48:52.771Z,9.00
2023-03-27T07:51:21.180Z,8.90
2023-03-27T07:53:55.779Z,8.90
2023-03-27T07:56:24.714Z,8.80
2023-03-27T07:58:53.178Z,8.90
2023-03-27T08:01:21.615Z,8.80
2023-03-27T08:03:52.238Z,8.80
2023-03-27T08:06:20.694Z,8.80
2023-03-27T08:08:50.992Z,8.80
2023-03-27T08:11:30.055Z,8.60
2023-03-27T08:13:59.423Z,8.60
2023-03-27T08:16:29.834Z,8.60
2023-03-27T08:19:00.129Z,8.70
2023-03-27T08:21:28.468Z,8.90
2023-03-27T08:23:58.941Z,9.00
2023-03-27T08:26:27.859Z,9.00
2023-03-27T08:28:56.682Z,8.90
2023-03-27T08:31:25.745Z,9.10
2023-03-27T08:33:54.531Z,9.00
2023-03-27T08:36:23.060Z,8.90
2023-03-27T08:38:55.500Z,8.70
2023-03-27T08:41:30.718Z,8.70
2023-03-27T08:44:03.764Z,8.60
2023-03-27T08:46:37.134Z,8.60
2023-03-27T08:49:09.889Z,8.50
2023-03-27T08:51:42.983Z,8.40
2023-03-27T08:54:18.079Z,8.30
2023-03-27T08:56:48.912Z,8.40
2023-03-27T08:59:20.815Z,8.50
2023-03-27T09:01:55.694Z,8.40
2023-03-27T09:04:35.827Z,8.50
2023-03-27T09:07:10.588Z,8.50
2023-03-27T09:09:50.654Z,8.60
2023-03-27T09:12:35.916Z,8.90
2023-03-27T09:15:12.285Z,9.00
2023-03-27T09:17:45.145Z,9.30
2023-03-27T09:20:19.214Z,9.40
2023-03-27T09:22:53.654Z,9.70
2023-03-27T09:25:27.577Z,9.80
2023-03-27T09:27:58.234Z,9.80
2023-03-27T09:30:29.431Z,9.60
2023-03-27T09:33:00.815Z,9.50
2023-03-27T09:35:30.882Z,9.40
2023-03-27T09:38:03.716Z,9.30
2023-03-27T09:40:37.573Z,9.40
2023-03-27T09:43:13.348Z,9.40
2023-03-27T09:45:42.698Z,9.40
2023-03-27T09:48:15.901Z,9.40
2023-03-27T09:50:47.357Z,9.20
2023-03-27T09:53:19.004Z,9.30
2023-03-27T09:55:52.902Z,9.30
2023-03-27T09:58:36.537Z,9.40
2023-03-27T10:01:14.010Z,9.40
2023-03-27T10:03:48.886Z,9.60
2023-03-27T10:06:26.420Z,9.50
2023-03-27T10:08:56.175Z,9.70
2023-03-27T10:11:28.887Z,9.60
2023-03-27T10:14:00.848Z,9.50
2023-03-27T10:16:31.158Z,9.50
2023-03-27T10:19:00.905Z,9.40
2023-03-27T10:21:32.856Z,9.30
2023-03-27T10:24:05.126Z,9.30
2023-03-27T10:26:38.155Z,9.50
2023-03-27T10:29:26.354Z,9.60
2023-03-27T10:31:56.883Z,9.10
2023-03-27T10:34:34.450Z,9.00
2023-03-27T10:37:04.455Z,8.70
2023-03-27T10:39:36.617Z,9.00
2023-03-27T10:42:09.196Z,9.10
2023-03-27T10:44:40.639Z,9.30
2023-03-27T10:47:18.789Z,9.60
2023-03-27T10:49:53.026Z,9.90
2023-03-27T10:52:24.840Z,10.10
2023-03-27T10:55:15.793Z,10.40
2023-03-27T10:57:49.680Z,10.70
2023-03-27T11:00:23.343Z,10.80
2023-03-27T11:02:57.708Z,10.80
2023-03-27T11:05:30.915Z,10.80
2023-03-27T11:08:04.185Z,10.60
2023-03-27T11:10:35.798Z,10.30
2023-03-27T11:13:10.925Z,10.00
2023-03-27T11:15:44.653Z,9.90
2023-03-27T11:18:18.406Z,10.10
2023-03-27T11:20:52.086Z,10.20
2023-03-27T11:23:28.532Z,10.40
2023-03-27T11:25:59.985Z,10.40
2023-03-27T11:28:39.514Z,10.20
2023-03-27T11:31:16.602Z,10.00
2023-03-27T11:33:50.575Z,9.90
2023-03-27T11:36:34.834Z,10.00
2023-03-27T11:39:13.662Z,10.00
2023-03-27T11:41:42.563Z,9.90
2023-03-27T11:44:11.978Z,9.80
2023-03-27T11:46:56.323Z,9.50
2023-03-27T11:49:38.799Z,9.40
2023-03-27T11:52:19.496Z,9.50
2023-03-27T11:55:06.732Z,9.50
2023-03-27T11:57:43.046Z,9.70
2023-03-27T12:00:17.772Z,9.90
2023-03-27T12:03:13.562Z,10.10
2023-03-27T12:05:58.864Z,10.30
2023-03-27T12:08:35.894Z,10.50
2023-03-27T12:11:08.848Z,10.50
2023-03-27T12:14:01.196Z,10.50
2023-03-27T12:17:01.121Z,10.40
2023-03-27T12:19:44.787Z,10.20
2023-03-27T12:22:27.200Z,10.10
2023-03-27T12:25:19.339Z,10.20
2023-03-27T12:27:59.889Z,10.50
2023-03-27T12:30:37.696Z,10.60
2023-03-27T12:33:39.122Z,10.80
2023-03-27T12:36:13.453Z,11.00
2023-03-27T12:38:43.500Z,11.20
2023-03-27T12:41:23.350Z,11.30
2023-03-27T12:43:57.236Z,11.50
2023-03-27T12:46:39.913Z,11.40
2023-03-27T12:49:47.689Z,11.50
2023-03-27T12:52:39.329Z,11.30
2023-03-27T12:55:32.394Z,11.10
2023-03-27T12:58:02.794Z,11.00
2023-03-27T13:00:32.532Z,11.00
2023-03-27T13:03:43.193Z,11.20
2023-03-27T13:06:40.216Z,11.40
2023-03-27T13:09:49.671Z,11.40
2023-03-27T13:12:59.676Z,11.50
2023-03-27T13:16:19.890Z,11.70
2023-03-27T13:19:09.798Z,12.00
2023-03-27T13:21:51.913Z,12.20
2023-03-27T13:24:35.297Z,12.30
2023-03-27T13:27:22.812Z,12.30
2023-03-27T13:30:01.531Z,12.00
2023-03-27T13:33:11.026Z,11.70
2023-03-27T13:35:42.919Z,11.60
2023-03-27T13:38:13.606Z,11.60
2023-03-27T13:40:44.942Z,11.70
2023-03-27T13:43:25.362Z,12.10
2023-03-27T13:46:19.466Z,12.20
2023-03-27T13:49:11.877Z,12.40
2023-03-27T13:52:27.656Z,12.50
2023-03-27T13:55:05.993Z,12.60
2023-03-27T13:57:55.530Z,12.60
2023-03-27T14:00:54.725Z,12.60
2023-03-27T14:03:53.333Z,12.50
2023-03-27T14:07:07.781Z,12.10
2023-03-27T14:09:51.337Z,11.80
2023-03-27T14:12:48.282Z,11.30
2023-03-27T14:15:49.993Z,11.10
2023-03-27T14:18:58.333Z,11.10
2023-03-27T14:21:38.412Z,11.00
2023-03-27T14:24:19.079Z,11.10
2023-03-27T14:26:48.897Z,11.10
2023-03-27T14:29:17.442Z,10.90
2023-03-27T14:31:47.626Z,10.80
2023-03-27T14:34:22.484Z,10.60
2023-03-27T14:36:52.289Z,10.30
2023-03-27T14:39:23.163Z,10.20
2023-03-27T14:41:55.836Z,10.20
2023-03-27T14:44:25.255Z,10.30
2023-03-27T14:47:01.458Z,10.30
2023-03-27T14:49:36.256Z,10.40
2023-03-27T14:52:07.840Z,10.30
2023-03-27T14:54:44.951Z,10.40
2023-03-27T14:57:17.897Z,10.50
2023-03-27T14:59:47.584Z,10.50
2023-03-27T15:02:23.260Z,10.50
2023-03-27T15:04:51.756Z,10.40
2023-03-27T15:07:22.584Z,10.30
2023-03-27T15:10:03.627Z,10.20
2023-03-27T15:12:32.081Z,10.00
2023-03-27T15:15:00.402Z,9.80
2023-03-27T15:17:34.553Z,9.70
2023-03-27T15:20:09.933Z,9.50
2023-03-27T15:22:43.198Z,9.40
2023-03-27T15:25:17.655Z,9.20
2023-03-27T15:27:53.036Z,9.10
2023-03-27T15:30:27.415Z,9.20
2023-03-27T15:33:02.109Z,9.10
2023-03-27T15:35:35.223Z,9.20
2023-03-27T15:38:05.889Z,9.00
2023-03-27T15:40:40.349Z,9.10
2023-03-27T15:43:23.430Z,9.10
2023-03-27T15:46:15.497Z,9.10
2023-03-27T15:48:47.494Z,9.10
2023-03-27T15:51:30.106Z,9.30
2023-03-27T15:53:58.824Z,9.40
2023-03-27T15:56:30.365Z,9.40
2023-03-27T15:59:01.469Z,9.40
2023-03-27T16:01:34.807Z,9.40
2023-03-27T16:04:08.401Z,9.40
2023-03-27T16:06:39.824Z,9.30
2023-03-27T16:09:22.558Z,9.30
2023-03-27T16:11:53.230Z,9.30
2023-03-27T16:14:31.660Z,9.20
2023-03-27T16:17:20.781Z,9.10
2023-03-27T16:19:56.478Z,8.90
2023-03-27T16:22:26.520Z,8.90
2023-03-27T16:24:55.721Z,8.70
2023-03-27T16:27:27.476Z,8.70
2023-03-27T16:29:56.466Z,8.60
2023-03-27T16:32:25.255Z,8.40
2023-03-27T16:34:56.069Z,8.50
2023-03-27T16:37:27.155Z,8.40
2023-03-27T16:39:57.047Z,8.40
2023-03-27T16:42:26.645Z,8.40
2023-03-27T16:44:55.331Z,8.50
2023-03-27T16:47:24.843Z,8.50
2023-03-27T16:50:10.468Z,8.40
2023-03-27T16:52:40.062Z,8.30
2023-03-27T16:55:09.805Z,8.50
2023-03-27T16:57:38.961Z,8.40
2023-03-27T17:00:11.109Z,8.40
2023-03-27T17:02:40.463Z,8.50
2023-03-27T17:05:11.468Z,8.40
2023-03-27T17:07:41.833Z,8.40
2023-03-27T17:10:11.541Z,8.10
2023-03-27T17:12:42.051Z,8.30
2023-03-27T17:15:12.084Z,8.20
2023-03-27T17:17:40.411Z,8.30
2023-03-27T17:20:12.249Z,8.20
2023-03-27T17:22:41.163Z,8.30
2023-03-27T17:25:11.566Z,8.30
2023-03-27T17:27:40.702Z,8.20
2023-03-27T17:30:10.128Z,8.20
2023-03-27T17:32:39.585Z,8.30
2023-03-27T17:35:08.506Z,8.20
2023-03-27T17:37:38.242Z,8.30
2023-03-27T17:40:09.780Z,7.90
2023-03-27T17:42:38.893Z,8.00
2023-03-27T17:45:07.597Z,8.00
2023-03-27T17:47:37.137Z,7.90
2023-03-27T17:50:06.936Z,8.00
2023-03-27T17:52:35.648Z,7.80
2023-03-27T17:55:06.561Z,8.10
2023-03-27T17:57:38.033Z,8.00
2023-03-27T18:00:07.631Z,8.10
2023-03-27T18:02:36.474Z,8.10
2023-03-27T18:05:07.367Z,7.90
2023-03-27T18:07:36.572Z,8.10
2023-03-27T18:10:08.505Z,8.10
2023-03-27T18:12:37.341Z,8.10
2023-03-27T18:15:08.607Z,8.10
2023-03-27T18:17:39.057Z,8.10
2023-03-27T18:20:10.362Z,8.00
2023-03-27T18:22:40.183Z,8.00
2023-03-27T18:25:11.631Z,8.00
2023-03-27T18:27:40.900Z,7.70
2023-03-27T18:30:13.863Z,7.60
2023-03-27T18:32:44.753Z,7.60
2023-03-27T18:35:16.123Z,7.60
2023-03-27T18:37:45.407Z,7.70
2023-03-27T18:40:18.376Z,7.60
2023-03-27T18:42:47.934Z,7.60
2023-03-27T18:45:18.425Z,7.30
2023-03-27T18:47:47.190Z,7.50
2023-03-27T18:50:16.761Z,7.50
2023-03-27T18:52:45.426Z,7.40
2023-03-27T18:55:15.149Z,7.10
2023-03-27T18:57:43.688Z,7.30
2023-03-27T19:00:18.424Z,7.30
2023-03-27T19:02:47.942Z,7.20
2023-03-27T19:05:17.895Z,7.20
2023-03-27T19:07:47.306Z,7.20
2023-03-27T19:10:17.439Z,7.10
2023-03-27T19:12:45.852Z,6.90
2023-03-27T19:17:49.283Z,6.90
2023-03-27T19:20:18.166Z,6.80
2023-03-27T19:22:48.876Z,6.90
2023-03-27T19:25:19.168Z,6.90
2023-03-27T19:27:48.983Z,6.90
2023-03-27T19:30:18.438Z,6.80
2023-03-27T19:32:47.100Z,6.80
2023-03-27T19:35:15.688Z,6.80
2023-03-27T19:37:44.194Z,6.80
2023-03-27T19:40:14.372Z,6.70
2023-03-27T19:42:44.531Z,6.70
2023-03-27T19:45:16.420Z,6.70
2023-03-27T19:47:47.444Z,6.60
2023-03-27T19:50:17.177Z,6.60
2023-03-27T19:52:51.593Z,6.70
2023-03-27T19:55:26.480Z,6.60
2023-03-27T19:57:56.667Z,6.40
2023-03-27T20:00:25.475Z,6.60
2023-03-27T20:02:54.891Z,6.40
2023-03-27T20:05:23.637Z,6.40
2023-03-27T20:07:53.012Z,6.50
2023-03-27T20:10:22.115Z,6.50
2023-03-27T20:12:50.560Z,6.40
2023-03-27T20:15:20.861Z,6.50
2023-03-27T20:17:49.305Z,6.40
2023-03-27T20:20:18.730Z,6.40
2023-03-27T20:22:57.615Z,6.50
2023-03-27T20:25:28.333Z,6.30
2023-03-27T20:27:57.423Z,6.40
2023-03-27T20:30:27.986Z,6.40
2023-03-27T20:32:57.241Z,6.40
2023-03-27T20:35:28.635Z,6.40
2023-03-27T20:38:04.843Z,6.30
2023-03-27T20:40:52.833Z,6.20
2023-03-27T20:43:22.935Z,6.30
2023-03-27T20:45:55.101Z,6.10
2023-03-27T20:48:23.631Z,6.10
2023-03-27T20:50:55.354Z,6.20
2023-03-27T20:53:29.997Z,6.10
2023-03-27T20:56:01.922Z,6.00
2023-03-27T20:58:33.090Z,6.20
2023-03-27T21:01:05.138Z,6.10
2023-03-27T21:03:38.971Z,6.10
2023-03-27T21:06:10.052Z,6.10
2023-03-27T21:08:41.285Z,6.20
2023-03-27T21:11:10.071Z,6.10
2023-03-27T21:13:38.784Z,6.10
2023-03-27T21:16:09.746Z,6.10
2023-03-27T21:18:39.036Z,6.10
2023-03-27T21:21:07.831Z,6.00
2023-03-27T21:23:37.080Z,5.90
2023-03-27T21:26:05.617Z,5.90
2023-03-27T21:28:34.238Z,6.00
2023-03-27T21:31:09.071Z,6.20
2023-03-27T21:33:38.441Z,6.00
2023-03-27T21:36:07.220Z,6.00
2023-03-27T21:38:35.598Z,5.70
2023-03-27T21:41:06.636Z,5.70
2023-03-27T21:43:35.018Z,5.70
2023-03-27T21:46:03.722Z,5.80
2023-03-27T21:48:34.347Z,5.80
2023-03-27T21:51:03.858Z,5.90
2023-03-27T21:53:32.754Z,5.80
2023-03-27T21:56:01.304Z,5.80
2023-03-27T21:58:31.036Z,5.80
2023-03-27T22:01:00.549Z,5.80
2023-03-27T22:03:29.932Z,5.70
2023-03-27T22:06:11.776Z,5.90
2023-03-27T22:08:43.275Z,5.70
2023-03-27T22:11:12.692Z,5.60
2023-03-27T22:13:43.512Z,5.60
2023-03-27T22:16:14.670Z,5.70
2023-03-27T22:18:44.233Z,5.50
2023-03-27T22:21:18.935Z,5.60
2023-03-27T22:23:49.112Z,5.70
2023-03-27T22:26:17.657Z,5.50
2023-03-27T22:28:46.260Z,5.60
2023-03-27T22:31:14.538Z,5.70
2023-03-27T22:33:42.987Z,5.70
2023-03-27T22:37:13.793Z,5.70
2023-03-27T22:40:02.001Z,5.60
2023-03-27T22:42:31.356Z,5.50
2023-03-27T22:44:59.752Z,5.60
2023-03-27T22:47:28.730Z,5.60
2023-03-27T22:49:57.617Z,5.40
2023-03-27T22:52:26.239Z,5.50
2023-03-27T22:54:54.887Z,5.30
2023-03-27T22:57:24.493Z,5.60
2023-03-27T22:59:52.825Z,5.50
2023-03-27T23:02:21.501Z,5.70
2023-03-27T23:04:49.915Z,5.50
2023-03-27T23:07:18.128Z,5.60
2023-03-27T23:09:46.550Z,5.60
2023-03-27T23:12:15.290Z,5.50
2023-03-27T23:14:44.925Z,5.40
2023-03-27T23:17:13.342Z,5.40
2023-03-27T23:19:41.997Z,5.20
2023-03-27T23:22:10.829Z,5.40
2023-03-27T23:24:39.134Z,5.40
2023-03-27T23:27:08.475Z,5.40
2023-03-27T23:29:37.301Z,5.30
2023-03-27T23:32:07.370Z,5.40
2023-03-27T23:34:37.464Z,5.40
2023-03-27T23:37:06.058Z,5.30
2023-03-27T23:39:34.627Z,5.40
2023-03-27T23:42:03.723Z,5.40
2023-03-27T23:44:32.469Z,5.20
2023-03-27T23:47:01.346Z,5.40
2023-03-27T23:49:31.393Z,5.30
2023-03-27T23:51:59.914Z,5.30
2023-03-27T23:54:28.133Z,5.30
2023-03-27T23:56:56.449Z,5.40
2023-03-27T23:59:25.039Z,5.20
